Time;durP1;ratioP1;P1;durP2;ratioP2;P2;SDS_P1;SDS_P2;PMS_P1;PMS_P2;Temp;Humidity;BMP_temperature;BMP_pressure;BME280_temperature;BME280_humidity;BME280_pressure;Samples;Min_cycle;Max_cycle;Signal;HPM_P1;HPM_P2
2023/09/18 00:01:11;;;;;;;2.65;1.55;;;22.90;99.90;;;;;;4131361;28;20265;-91
2023/09/18 00:03:12;;;;;;;5.13;1.35;;;22.90;99.90;;;;;;4148238;28;20208;-93
2023/09/18 00:05:15;;;;;;;2.38;1.40;;;23.00;99.90;;;;;;4132089;28;20173;-90
2023/09/18 00:07:16;;;;;;;2.95;1.38;;;23.10;99.90;;;;;;4148222;28;20181;-89
2023/09/18 00:09:17;;;;;;;2.90;1.50;;;23.30;99.90;;;;;;4131957;28;20174;-93
2023/09/18 00:11:17;;;;;;;3.25;1.80;;;23.20;99.90;;;;;;4148204;28;21291;-89
2023/09/18 00:13:19;;;;;;;2.80;1.52;;;23.10;99.90;;;;;;4148157;28;20788;-90
2023/09/18 00:15:19;;;;;;;3.95;1.50;;;22.80;99.90;;;;;;4132037;28;20189;-91
2023/09/18 00:17:23;;;;;;;3.70;1.67;;;22.40;99.90;;;;;;4148345;28;20615;-89
2023/09/18 00:19:24;;;;;;;5.70;1.92;;;22.10;99.90;;;;;;4132062;28;20181;-91
2023/09/18 00:21:25;;;;;;;3.20;1.70;;;21.80;99.90;;;;;;4132246;28;20259;-88
2023/09/18 00:23:26;;;;;;;7.82;2.10;;;21.80;99.90;;;;;;4131874;28;20706;-88
2023/09/18 00:25:27;;;;;;;3.80;2.08;;;21.90;99.90;;;;;;4148032;28;20200;-92
2023/09/18 00:27:28;;;;;;;3.65;2.00;;;21.90;99.90;;;;;;4131719;28;20651;-87
2023/09/18 00:29:28;;;;;;;3.75;1.77;;;21.80;99.90;;;;;;4131909;28;20177;-88
2023/09/18 00:31:29;;;;;;;5.60;1.73;;;21.90;99.90;;;;;;4131957;28;20209;-88
2023/09/18 00:33:31;;;;;;;2.95;1.50;;;21.90;99.90;;;;;;4131689;28;20240;-87
2023/09/18 00:35:32;;;;;;;5.97;1.40;;;21.90;99.90;;;;;;4131894;28;20185;-88
2023/09/18 00:37:33;;;;;;;4.70;1.80;;;21.70;99.90;;;;;;4131894;28;20248;-88
2023/09/18 00:39:34;;;;;;;3.35;1.52;;;21.70;99.90;;;;;;4131668;28;20186;-88
2023/09/18 00:41:36;;;;;;;5.55;1.50;;;21.60;99.90;;;;;;4148102;28;20729;-88
2023/09/18 00:43:37;;;;;;;3.13;1.77;;;21.60;99.90;;;;;;4131786;28;20206;-88
2023/09/18 00:45:46;;;;;;;2.38;1.77;;;21.60;99.90;;;;;;4131590;28;20189;-89
2023/09/18 00:47:46;;;;;;;2.42;1.13;;;21.60;99.90;;;;;;4131714;28;20185;-89
2023/09/18 00:49:49;;;;;;;1.75;0.98;;;21.60;99.90;;;;;;4131738;28;20177;-88
2023/09/18 00:51:51;;;;;;;3.05;1.40;;;21.40;99.90;;;;;;4131720;28;20190;-88
2023/09/18 00:53:52;;;;;;;2.78;1.30;;;21.40;99.90;;;;;;4131554;28;20715;-88
2023/09/18 00:55:56;;;;;;;4.93;1.67;;;21.50;99.90;;;;;;4131546;28;20213;-88
2023/09/18 00:57:57;;;;;;;2.10;1.20;;;21.60;99.90;;;;;;4147703;28;20188;-87
2023/09/18 00:59:57;;;;;;;2.25;1.40;;;21.60;99.90;;;;;;4131678;28;20710;-88
2023/09/18 01:01:59;;;;;;;2.47;1.75;;;21.70;99.90;;;;;;4147942;28;20177;-88
2023/09/18 01:04:01;;;;;;;4.05;1.23;;;21.50;99.90;;;;;;4131574;28;20205;-92
2023/09/18 01:06:03;;;;;;;5.65;1.42;;;21.40;99.90;;;;;;4131651;28;20225;-88
2023/09/18 01:08:05;;;;;;;8.75;1.98;;;21.30;99.90;;;;;;4131683;28;20189;-89
2023/09/18 01:10:08;;;;;;;4.35;1.25;;;21.40;99.90;;;;;;4147954;28;20667;-88
2023/09/18 01:12:23;;;;;;;5.45;1.65;;;21.40;99.90;;;;;;4133180;28;20215;-87
2023/09/18 01:14:30;;;;;;;5.00;1.20;;;21.70;99.90;;;;;;4150927;28;20288;-88
2023/09/18 01:16:54;;;;;;;1.05;0.80;;;21.70;99.90;;;;;;4134631;28;20289;-90
2023/09/18 01:18:56;;;;;;;1.65;1.10;;;21.40;99.90;;;;;;4134340;28;20305;-87
2023/09/18 01:20:57;;;;;;;1.15;0.80;;;21.40;99.90;;;;;;4150782;28;20181;-92
2023/09/18 01:22:57;;;;;;;1.50;1.00;;;21.60;99.90;;;;;;4134293;28;20563;-90
2023/09/18 01:24:58;;;;;;;1.75;1.08;;;21.60;99.90;;;;;;4150467;28;20200;-88
2023/09/18 01:26:59;;;;;;;2.50;1.00;;;21.70;99.90;;;;;;4150510;28;20261;-88
2023/09/18 01:29:00;;;;;;;1.50;1.05;;;21.70;99.90;;;;;;4134246;28;20202;-87
2023/09/18 01:31:01;;;;;;;2.10;0.70;;;21.80;99.90;;;;;;4134301;28;20177;-88
2023/09/18 01:33:04;;;;;;;4.32;0.90;;;21.40;99.90;;;;;;4150256;28;20220;-89
2023/09/18 01:35:07;;;;;;;1.63;0.93;;;21.20;99.90;;;;;;4134213;28;20208;-88
2023/09/18 01:37:10;;;;;;;1.10;0.68;;;21.40;99.90;;;;;;4150540;28;20663;-88
2023/09/18 01:39:12;;;;;;;1.30;0.50;;;21.40;99.90;;;;;;4134235;28;20174;-88
2023/09/18 01:41:13;;;;;;;2.05;0.77;;;21.50;99.90;;;;;;4134240;28;20276;-89
2023/09/18 01:43:14;;;;;;;0.88;0.65;;;21.50;99.90;;;;;;4150090;28;20197;-89
2023/09/18 01:45:14;;;;;;;2.13;0.90;;;21.50;99.90;;;;;;4133988;28;20280;-88
2023/09/18 01:47:20;;;;;;;3.58;0.90;;;21.30;99.90;;;;;;4134149;28;20644;-87
2023/09/18 01:49:36;;;;;;;0.70;0.50;;;21.50;99.90;;;;;;4150537;28;20177;-93
2023/09/18 01:51:37;;;;;;;1.00;0.70;;;21.90;99.90;;;;;;4134105;28;20277;-88
2023/09/18 01:53:37;;;;;;;1.63;0.68;;;21.40;99.90;;;;;;4150070;28;20610;-88
2023/09/18 01:55:38;;;;;;;0.93;0.70;;;21.20;99.90;;;;;;4133855;28;20169;-89
2023/09/18 01:57:39;;;;;;;3.25;0.70;;;21.10;99.90;;;;;;4149993;28;20701;-92
2023/09/18 01:59:41;;;;;;;3.38;0.75;;;21.00;99.90;;;;;;4133915;28;20264;-90
2023/09/18 02:01:42;;;;;;;2.45;0.80;;;21.00;99.90;;;;;;4133952;28;20186;-93
2023/09/18 02:03:42;;;;;;;2.85;0.68;;;20.90;99.90;;;;;;4150025;28;20735;-95
2023/09/18 02:05:44;;;;;;;2.67;0.77;;;21.00;99.90;;;;;;4150133;28;20185;-89
2023/09/18 02:07:45;;;;;;;1.50;0.88;;;21.00;99.90;;;;;;4134028;28;20273;-89
2023/09/18 02:09:45;;;;;;;2.22;0.90;;;21.10;99.90;;;;;;4150033;28;20189;-89
2023/09/18 02:11:50;;;;;;;3.25;0.70;;;21.10;99.90;;;;;;4133817;28;20181;-88
2023/09/18 02:13:51;;;;;;;1.98;0.98;;;21.20;99.90;;;;;;4133827;28;20710;-94
2023/09/18 02:15:52;;;;;;;4.97;1.30;;;21.20;99.90;;;;;;4149683;28;20259;-86
2023/09/18 02:17:53;;;;;;;4.15;1.67;;;21.10;99.90;;;;;;4133656;28;20750;-87
2023/09/18 02:19:54;;;;;;;2.92;1.15;;;21.20;99.90;;;;;;4149807;28;20169;-86
2023/09/18 02:21:57;;;;;;;2.75;1.20;;;21.20;99.90;;;;;;4133517;28;20273;-87
2023/09/18 02:23:58;;;;;;;2.92;1.10;;;21.20;99.90;;;;;;4133128;28;20285;-87
2023/09/18 02:25:59;;;;;;;4.53;1.20;;;21.40;99.90;;;;;;4133559;28;20196;-92
2023/09/18 02:28:00;;;;;;;2.63;1.70;;;21.30;99.90;;;;;;4149671;28;20192;-92
2023/09/18 02:30:00;;;;;;;4.53;1.20;;;21.40;99.90;;;;;;4133385;28;20186;-87
2023/09/18 02:32:02;;;;;;;4.25;1.30;;;21.50;99.90;;;;;;4133298;28;20178;-87
2023/09/18 02:34:03;;;;;;;3.25;1.33;;;21.40;99.90;;;;;;4133273;28;20377;-88
2023/09/18 02:36:04;;;;;;;4.38;1.70;;;21.20;99.90;;;;;;4133166;28;20173;-87
2023/09/18 02:38:04;;;;;;;3.55;1.27;;;21.20;99.90;;;;;;4151541;28;20192;-88
2023/09/18 02:40:07;;;;;;;2.92;1.52;;;21.20;99.90;;;;;;4153275;28;20268;-87
2023/09/18 02:42:08;;;;;;;2.97;1.33;;;21.30;99.90;;;;;;4135205;28;20607;-87
2023/09/18 02:44:09;;;;;;;4.47;1.67;;;21.40;99.90;;;;;;4133065;28;20201;-90
2023/09/18 02:46:10;;;;;;;4.38;1.73;;;21.60;99.90;;;;;;4133464;28;20213;-88
2023/09/18 02:48:11;;;;;;;2.97;1.63;;;21.50;99.90;;;;;;4149410;28;20181;-88
2023/09/18 02:50:11;;;;;;;1.70;1.10;;;21.50;99.90;;;;;;4132841;28;20182;-88
2023/09/18 02:52:12;;;;;;;4.70;1.63;;;21.50;99.90;;;;;;4132875;28;20174;-88
2023/09/18 02:54:13;;;;;;;2.78;1.30;;;21.60;99.90;;;;;;4132633;28;20276;-87
2023/09/18 02:56:14;;;;;;;3.28;1.70;;;21.60;99.90;;;;;;4133006;28;20189;-87
2023/09/18 02:58:16;;;;;;;1.30;0.95;;;21.30;99.90;;;;;;4132969;28;20181;-87
2023/09/18 03:00:17;;;;;;;1.67;0.90;;;21.20;99.90;;;;;;4132774;28;20305;-90
2023/09/18 03:02:18;;;;;;;0.93;0.50;;;21.20;99.90;;;;;;4149319;28;20378;-87
2023/09/18 03:04:19;;;;;;;3.88;0.98;;;21.10;99.90;;;;;;4132812;28;20205;-92
2023/09/18 03:06:21;;;;;;;3.28;1.05;;;21.10;99.90;;;;;;4132922;28;20197;-88
2023/09/18 03:08:21;;;;;;;1.00;0.70;;;21.10;99.90;;;;;;4132797;28;20261;-89
2023/09/18 03:10:22;;;;;;;1.70;0.90;;;21.10;99.90;;;;;;4132856;28;20181;-88
2023/09/18 03:12:23;;;;;;;4.53;0.75;;;21.20;99.90;;;;;;4148905;28;20332;-87
2023/09/18 03:14:24;;;;;;;3.45;0.90;;;21.20;99.90;;;;;;4132675;28;20229;-88
2023/09/18 03:16:25;;;;;;;2.15;0.70;;;21.20;99.90;;;;;;4148987;28;20209;-87
2023/09/18 03:18:25;;;;;;;1.90;0.70;;;21.20;99.90;;;;;;4132678;28;20177;-88
2023/09/18 03:20:28;;;;;;;2.72;0.98;;;21.10;99.90;;;;;;4149000;28;20192;-92
2023/09/18 03:22:29;;;;;;;3.65;0.80;;;21.20;99.90;;;;;;4148872;28;20271;-88
2023/09/18 03:24:30;;;;;;;3.55;0.85;;;21.30;99.90;;;;;;4132463;28;20730;-88
2023/09/18 03:26:31;;;;;;;1.73;1.10;;;21.00;99.90;;;;;;4132482;28;20705;-88
2023/09/18 03:28:32;;;;;;;2.05;1.08;;;21.00;99.90;;;;;;4132483;28;20196;-88
2023/09/18 03:30:33;;;;;;;1.20;0.70;;;21.10;99.90;;;;;;4148618;28;20177;-92
2023/09/18 03:32:33;;;;;;;0.80;0.70;;;21.10;99.90;;;;;;4132337;28;20177;-87
2023/09/18 03:34:34;;;;;;;2.00;1.05;;;21.10;99.90;;;;;;4132297;28;20256;-88
2023/09/18 03:36:36;;;;;;;1.05;0.65;;;21.10;99.90;;;;;;4147934;28;20682;-89
2023/09/18 03:38:37;;;;;;;9.25;1.23;;;20.90;99.90;;;;;;4148716;28;20188;-87
2023/09/18 03:40:38;;;;;;;4.72;1.20;;;21.00;99.90;;;;;;4148512;28;20272;-89
2023/09/18 03:42:39;;;;;;;5.70;0.85;;;21.00;99.90;;;;;;4132362;28;20644;-88
2023/09/18 03:44:40;;;;;;;2.80;0.90;;;20.80;99.90;;;;;;4148457;28;20212;-90
2023/09/18 03:46:40;;;;;;;2.72;0.93;;;20.70;99.90;;;;;;4132224;28;20197;-88
2023/09/18 03:48:41;;;;;;;6.15;1.05;;;20.50;99.90;;;;;;4148726;28;20176;-88
2023/09/18 03:50:42;;;;;;;2.92;0.50;;;20.60;99.90;;;;;;4132231;28;20196;-87
2023/09/18 03:52:43;;;;;;;1.30;0.68;;;20.60;99.90;;;;;;4132093;28;20205;-89
2023/09/18 03:54:43;;;;;;;2.60;0.95;;;20.70;99.90;;;;;;4132372;28;20182;-88
2023/09/18 03:56:46;;;;;;;1.35;0.70;;;20.70;99.90;;;;;;4148701;28;20184;-89
2023/09/18 03:58:49;;;;;;;1.90;0.60;;;20.50;99.90;;;;;;4132358;28;20201;-89
2023/09/18 04:00:51;;;;;;;1.60;0.70;;;20.50;99.90;;;;;;4132473;28;20185;-89
2023/09/18 04:02:51;;;;;;;1.42;0.80;;;20.50;99.90;;;;;;4132141;28;20232;-90
2023/09/18 04:04:55;;;;;;;2.92;0.98;;;20.50;99.90;;;;;;4132094;28;20243;-91
2023/09/18 04:06:56;;;;;;;0.28;0.28;;;20.50;99.90;;;;;;4131801;28;20207;-91
2023/09/18 04:08:56;;;;;;;2.90;0.80;;;20.30;99.90;;;;;;4131746;28;20243;-91
2023/09/18 04:10:57;;;;;;;1.13;0.52;;;20.20;99.90;;;;;;4132105;28;20247;-88
2023/09/18 04:12:58;;;;;;;0.73;0.50;;;20.20;99.90;;;;;;4131995;28;20229;-88
2023/09/18 04:14:59;;;;;;;0.65;0.47;;;20.10;99.90;;;;;;4132020;28;20192;-89
2023/09/18 04:17:03;;;;;;;3.80;0.95;;;19.90;99.90;;;;;;4148311;28;20252;-89
2023/09/18 04:19:04;;;;;;;0.30;0.30;;;19.90;99.90;;;;;;4132066;28;20560;-89
2023/09/18 04:21:05;;;;;;;0.93;0.30;;;19.90;99.90;;;;;;4148387;28;20255;-88
2023/09/18 04:23:17;;;;;;;1.10;0.35;;;19.90;99.90;;;;;;4132010;28;20205;-89
2023/09/18 04:25:22;;;;;;;0.43;0.30;;;19.90;99.90;;;;;;4131637;28;20647;-92
2023/09/18 04:27:22;;;;;;;1.65;0.60;;;19.80;99.90;;;;;;4148077;28;20177;-88
2023/09/18 04:29:23;;;;;;;0.35;0.30;;;19.80;99.90;;;;;;4131823;28;20211;-89
2023/09/18 04:31:25;;;;;;;0.20;0.20;;;19.70;99.90;;;;;;4148174;28;20563;-90
2023/09/18 04:33:28;;;;;;;3.30;0.32;;;19.60;99.90;;;;;;4131745;28;20221;-88
2023/09/18 04:35:31;;;;;;;0.43;0.40;;;19.60;99.90;;;;;;4131663;28;20185;-90
2023/09/18 04:37:33;;;;;;;0.30;0.28;;;19.60;99.90;;;;;;4131798;28;20189;-89
2023/09/18 04:39:36;;;;;;;0.60;0.32;;;19.60;99.90;;;;;;4131791;28;20197;-89
2023/09/18 04:41:37;;;;;;;1.65;0.50;;;19.50;99.90;;;;;;4131600;28;20594;-91
2023/09/18 04:43:40;;;;;;;0.50;0.40;;;19.50;99.90;;;;;;4131828;28;20284;-88
2023/09/18 04:45:42;;;;;;;0.77;0.47;;;19.40;99.90;;;;;;4131794;28;20217;-91
2023/09/18 04:47:43;;;;;;;0.90;0.30;;;19.40;99.90;;;;;;4134152;28;20643;-88
2023/09/18 04:49:47;;;;;;;1.00;0.52;;;19.50;99.90;;;;;;4134921;28;20181;-89
2023/09/18 04:51:48;;;;;;;0.32;0.10;;;19.60;99.90;;;;;;4134915;28;20731;-89
2023/09/18 04:53:49;;;;;;;3.40;0.38;;;19.50;99.90;;;;;;4150795;28;20216;-89
2023/09/18 04:55:50;;;;;;;0.52;0.40;;;19.60;99.90;;;;;;4134951;28;20233;-89
2023/09/18 04:57:51;;;;;;;0.50;0.30;;;19.60;99.90;;;;;;4135140;28;20193;-88
2023/09/18 04:59:51;;;;;;;1.42;0.30;;;19.60;99.90;;;;;;4134880;28;20185;-89
2023/09/18 05:01:52;;;;;;;1.30;0.30;;;19.60;99.90;;;;;;4135046;28;20698;-88
2023/09/18 05:03:53;;;;;;;1.65;0.32;;;19.50;99.90;;;;;;4151073;28;20209;-90
2023/09/18 05:05:54;;;;;;;2.17;0.20;;;19.50;99.90;;;;;;4134720;28;20173;-89
2023/09/18 05:07:55;;;;;;;0.95;0.30;;;19.40;99.90;;;;;;4151042;28;20639;-89
2023/09/18 05:09:55;;;;;;;2.50;0.43;;;19.40;99.90;;;;;;4134455;28;20181;-92
2023/09/18 05:11:57;;;;;;;2.25;0.38;;;19.40;99.90;;;;;;4134378;28;20189;-89
2023/09/18 05:13:58;;;;;;;4.75;0.75;;;19.50;99.90;;;;;;4134400;28;20224;-90
2023/09/18 05:16:00;;;;;;;2.05;0.35;;;19.50;99.90;;;;;;4134404;28;20269;-88
2023/09/18 05:18:02;;;;;;;0.20;0.20;;;19.50;99.90;;;;;;4134430;28;20173;-92
2023/09/18 05:20:04;;;;;;;3.20;0.43;;;19.40;99.90;;;;;;4134587;28;20185;-89
2023/09/18 05:22:05;;;;;;;2.38;0.40;;;19.40;99.90;;;;;;4134599;28;20220;-88
2023/09/18 05:24:06;;;;;;;1.65;0.50;;;19.30;99.90;;;;;;4134351;28;20607;-89
2023/09/18 05:26:07;;;;;;;2.03;0.30;;;19.40;99.90;;;;;;4134343;28;20177;-89
2023/09/18 05:28:08;;;;;;;3.67;0.70;;;19.50;99.90;;;;;;4150571;28;20196;-89
2023/09/18 05:30:10;;;;;;;3.35;0.30;;;19.50;99.90;;;;;;4150610;28;20545;-88
2023/09/18 05:32:11;;;;;;;2.60;0.30;;;19.50;99.90;;;;;;4150643;28;20184;-89
2023/09/18 05:34:12;;;;;;;2.45;0.38;;;19.40;99.90;;;;;;4150517;28;20231;-88
2023/09/18 05:36:14;;;;;;;0.98;0.47;;;19.40;99.90;;;;;;4134237;28;20562;-88
2023/09/18 05:38:17;;;;;;;0.90;0.43;;;19.40;99.90;;;;;;4134228;28;20185;-91
2023/09/18 05:40:18;;;;;;;1.00;0.40;;;19.50;99.90;;;;;;4134316;28;20181;-92
2023/09/18 05:42:19;;;;;;;0.50;0.40;;;19.50;99.90;;;;;;4150505;28;20189;-94
2023/09/18 05:44:19;;;;;;;0.90;0.40;;;19.50;99.90;;;;;;4134160;28;20249;-89
2023/09/18 05:46:20;;;;;;;1.73;0.60;;;19.40;99.90;;;;;;4134288;28;20177;-93
2023/09/18 05:48:21;;;;;;;0.60;0.30;;;19.40;99.90;;;;;;4150365;28;20185;-88
2023/09/18 05:50:22;;;;;;;0.85;0.50;;;19.20;99.90;;;;;;4134065;28;20272;-89
2023/09/18 05:52:23;;;;;;;2.72;0.50;;;19.20;99.90;;;;;;4134502;28;20280;-89
2023/09/18 05:54:24;;;;;;;1.02;0.50;;;19.30;99.90;;;;;;4151146;28;20283;-89
2023/09/18 05:56:25;;;;;;;1.17;0.65;;;19.30;99.90;;;;;;4160748;28;20227;-88
2023/09/18 05:58:27;;;;;;;0.65;0.40;;;19.20;99.90;;;;;;4144975;28;20245;-89
2023/09/18 06:00:30;;;;;;;1.30;0.50;;;19.30;99.90;;;;;;4135040;28;20265;-92
2023/09/18 06:02:31;;;;;;;0.40;0.38;;;19.30;99.90;;;;;;4134448;28;20201;-88
2023/09/18 06:04:32;;;;;;;4.22;0.52;;;19.30;99.90;;;;;;4134085;28;20205;-90
2023/09/18 06:06:33;;;;;;;1.65;0.65;;;19.20;99.90;;;;;;4134120;28;20628;-94
2023/09/18 06:08:34;;;;;;;1.15;0.55;;;19.10;99.90;;;;;;4134057;28;20185;-89
2023/09/18 06:10:34;;;;;;;2.00;0.43;;;19.10;99.90;;;;;;4150083;28;20249;-91
2023/09/18 06:12:39;;;;;;;2.38;0.40;;;19.10;99.90;;;;;;4149946;28;20279;-88
2023/09/18 06:14:40;;;;;;;1.70;0.68;;;19.20;99.90;;;;;;4133799;28;20193;-89
2023/09/18 06:16:40;;;;;;;1.73;0.40;;;19.30;99.90;;;;;;4149899;28;20256;-91
2023/09/18 06:18:41;;;;;;;1.20;0.40;;;19.30;99.90;;;;;;4133823;28;20184;-89
2023/09/18 06:20:43;;;;;;;0.63;0.50;;;19.20;99.90;;;;;;4137036;28;20205;-89
2023/09/18 06:22:44;;;;;;;0.93;0.45;;;19.30;99.90;;;;;;4136781;28;20185;-88
2023/09/18 06:24:45;;;;;;;9.18;0.70;;;19.20;99.90;;;;;;4136927;28;20235;-89
2023/09/18 06:26:46;;;;;;;0.98;0.43;;;19.20;99.90;;;;;;4152757;28;20177;-88
2023/09/18 06:28:47;;;;;;;1.13;0.65;;;19.10;99.90;;;;;;4136835;28;20264;-88
2023/09/18 06:30:48;;;;;;;1.13;0.73;;;19.10;99.90;;;;;;4153607;28;20311;-89
2023/09/18 06:32:49;;;;;;;0.70;0.30;;;19.20;99.90;;;;;;4152578;28;20231;-90
2023/09/18 06:34:49;;;;;;;2.28;0.80;;;19.20;99.90;;;;;;4134019;28;20181;-90
2023/09/18 06:36:50;;;;;;;1.88;0.80;;;19.10;99.90;;;;;;4149873;28;20267;-92
2023/09/18 06:38:51;;;;;;;1.83;0.60;;;19.20;99.90;;;;;;4133114;28;20189;-93
2023/09/18 06:40:52;;;;;;;1.17;0.52;;;19.20;99.90;;;;;;4149639;28;20204;-90
2023/09/18 06:42:59;;;;;;;1.38;0.75;;;19.30;99.90;;;;;;4133309;28;20208;-92
2023/09/18 06:45:01;;;;;;;3.10;0.70;;;19.30;99.90;;;;;;4133381;28;20225;-89
2023/09/18 06:47:02;;;;;;;3.70;1.02;;;19.40;99.90;;;;;;4133309;28;20180;-89
2023/09/18 06:49:03;;;;;;;1.80;1.02;;;19.40;99.90;;;;;;4133426;28;20228;-89
2023/09/18 06:51:04;;;;;;;2.30;1.25;;;19.30;99.90;;;;;;4133165;28;20276;-91
2023/09/18 06:53:04;;;;;;;1.73;0.93;;;19.30;99.90;;;;;;4132990;28;20276;-89
2023/09/18 06:55:05;;;;;;;1.55;0.82;;;19.50;99.90;;;;;;4133052;28;20188;-93
2023/09/18 06:57:06;;;;;;;3.67;0.82;;;19.50;99.90;;;;;;4133191;28;20181;-89
2023/09/18 06:59:07;;;;;;;2.13;0.77;;;19.50;99.90;;;;;;4149235;28;20271;-89
2023/09/18 07:01:09;;;;;;;4.20;0.90;;;19.50;99.90;;;;;;4133288;28;20181;-90
2023/09/18 07:03:11;;;;;;;2.08;0.90;;;19.40;99.90;;;;;;4133122;28;20209;-90
2023/09/18 07:05:12;;;;;;;0.70;0.60;;;19.50;99.90;;;;;;4132930;28;20651;-91
2023/09/18 07:07:14;;;;;;;0.90;0.70;;;19.50;99.90;;;;;;4149064;28;20173;-89
2023/09/18 07:09:14;;;;;;;2.20;0.68;;;19.30;99.90;;;;;;4132652;28;20258;-89
2023/09/18 07:11:16;;;;;;;2.80;0.93;;;19.30;99.90;;;;;;4149072;28;20173;-89
2023/09/18 07:13:17;;;;;;;1.88;0.80;;;19.30;99.90;;;;;;4132742;28;20595;-91
2023/09/18 07:15:18;;;;;;;1.08;0.80;;;19.40;99.90;;;;;;4148852;28;20177;-89
2023/09/18 07:17:19;;;;;;;6.20;1.00;;;19.50;99.90;;;;;;4132735;28;20213;-89
2023/09/18 07:19:19;;;;;;;1.85;0.90;;;19.70;99.90;;;;;;4149330;28;20187;-88
2023/09/18 07:21:20;;;;;;;1.23;0.50;;;20.00;99.90;;;;;;4132993;28;20264;-89
2023/09/18 07:23:21;;;;;;;1.48;0.88;;;20.30;99.90;;;;;;4132464;28;20660;-88
2023/09/18 07:25:22;;;;;;;2.33;0.88;;;21.00;99.90;;;;;;4132437;28;20228;-91
2023/09/18 07:27:22;;;;;;;1.95;0.63;;;21.90;99.90;;;;;;4132306;28;20628;-90
2023/09/18 07:29:25;;;;;;;3.00;1.20;;;22.50;99.90;;;;;;4132335;28;20186;-89
2023/09/18 07:31:25;;;;;;;1.13;0.50;;;23.40;99.90;;;;;;4132632;28;20177;-91
2023/09/18 07:33:26;;;;;;;3.85;0.98;;;23.70;99.90;;;;;;4148865;28;20287;-90
2023/09/18 07:35:27;;;;;;;2.85;0.65;;;24.40;99.90;;;;;;4132511;28;20560;-90
2023/09/18 07:37:28;;;;;;;3.05;0.70;;;24.70;99.90;;;;;;4148512;28;20185;-89
2023/09/18 07:39:29;;;;;;;1.13;0.65;;;24.90;99.90;;;;;;4132136;28;20209;-89
2023/09/18 07:41:31;;;;;;;1.58;0.82;;;25.30;99.90;;;;;;4148608;28;20550;-90
2023/09/18 07:43:31;;;;;;;1.77;0.70;;;25.00;99.90;;;;;;4132390;28;20210;-90
2023/09/18 07:45:34;;;;;;;1.17;0.60;;;25.50;99.90;;;;;;4132004;28;20187;-91
2023/09/18 07:47:34;;;;;;;4.22;1.45;;;24.80;99.90;;;;;;4132333;28;20181;-90
2023/09/18 07:49:35;;;;;;;0.93;0.40;;;23.90;99.90;;;;;;4148520;28;20602;-89
2023/09/18 07:51:36;;;;;;;1.17;0.70;;;23.50;99.90;;;;;;4132386;28;20186;-90
2023/09/18 07:53:37;;;;;;;3.05;1.05;;;23.10;99.90;;;;;;4148450;28;20224;-91
2023/09/18 07:55:38;;;;;;;0.98;0.70;;;22.60;99.90;;;;;;4132562;28;20187;-90
2023/09/18 07:57:39;;;;;;;1.27;0.77;;;22.30;99.90;;;;;;4132407;28;20276;-93
2023/09/18 07:59:42;;;;;;;3.83;1.00;;;22.10;99.90;;;;;;4148569;28;20277;-92
2023/09/18 08:01:43;;;;;;;1.58;0.90;;;21.70;99.90;;;;;;4132254;28;20196;-89
2023/09/18 08:03:44;;;;;;;1.25;0.80;;;21.50;99.90;;;;;;4132115;28;20204;-89
2023/09/18 08:05:47;;;;;;;1.30;0.55;;;21.50;99.90;;;;;;4132121;28;20177;-92
2023/09/18 08:07:49;;;;;;;1.77;0.85;;;21.50;99.90;;;;;;4132002;28;20687;-89
2023/09/18 08:09:49;;;;;;;6.10;0.70;;;21.30;99.90;;;;;;4148387;28;20185;-90
2023/09/18 08:11:55;;;;;;;5.18;0.82;;;21.40;99.90;;;;;;4132295;28;20252;-89
2023/09/18 08:13:56;;;;;;;1.20;1.00;;;21.30;99.90;;;;;;4148230;28;20279;-90
2023/09/18 08:15:56;;;;;;;2.25;0.65;;;21.20;99.90;;;;;;4132051;28;20190;-89
2023/09/18 08:17:58;;;;;;;2.38;0.82;;;21.10;99.90;;;;;;4131850;28;20185;-89
2023/09/18 08:19:59;;;;;;;4.40;1.42;;;20.90;99.90;;;;;;4132062;28;20669;-90
2023/09/18 08:22:00;;;;;;;2.90;1.20;;;20.80;99.90;;;;;;4134804;28;20185;-90
2023/09/18 08:24:01;;;;;;;3.55;0.93;;;20.80;99.90;;;;;;4137588;28;20738;-90
2023/09/18 08:26:03;;;;;;;0.70;0.60;;;20.80;99.90;;;;;;4137365;28;20300;-92
2023/09/18 08:28:06;;;;;;;3.20;1.30;;;20.60;99.90;;;;;;4153371;28;20184;-91
2023/09/18 08:30:09;;;;;;;1.88;0.90;;;20.60;99.90;;;;;;4137156;28;20178;-89
2023/09/18 08:32:10;;;;;;;5.85;1.13;;;20.60;99.90;;;;;;4137534;28;20177;-90
2023/09/18 08:34:11;;;;;;;1.58;1.02;;;20.60;99.90;;;;;;4137085;28;20229;-90
2023/09/18 08:36:12;;;;;;;2.85;0.93;;;20.50;99.90;;;;;;4136853;28;20263;-91
2023/09/18 08:38:14;;;;;;;3.90;1.00;;;20.50;99.90;;;;;;4137140;28;20184;-90
2023/09/18 08:40:16;;;;;;;3.28;0.70;;;20.60;99.90;;;;;;4136861;28;20264;-90
2023/09/18 08:42:20;;;;;;;3.60;1.10;;;20.50;99.90;;;;;;4137345;28;20188;-90
2023/09/18 08:44:25;;;;;;;3.05;0.90;;;20.40;99.90;;;;;;4136938;28;20212;-92
2023/09/18 08:46:27;;;;;;;2.08;0.70;;;20.60;99.90;;;;;;4137412;28;20189;-91
2023/09/18 08:48:35;;;;;;;1.42;0.77;;;20.80;99.90;;;;;;4137513;28;20248;-90
2023/09/18 08:50:37;;;;;;;4.88;0.70;;;20.60;99.90;;;;;;4137763;28;20729;-90
2023/09/18 08:52:41;;;;;;;1.70;0.85;;;20.50;99.90;;;;;;4137724;28;20177;-90
2023/09/18 08:54:43;;;;;;;2.25;1.00;;;20.60;99.90;;;;;;4137205;28;20193;-89
2023/09/18 08:56:43;;;;;;;4.97;1.10;;;20.60;99.90;;;;;;4137448;28;20276;-90
2023/09/18 08:58:45;;;;;;;3.90;1.05;;;20.60;99.90;;;;;;4153549;28;20308;-94
2023/09/18 09:00:45;;;;;;;1.00;0.57;;;20.80;99.90;;;;;;4137248;28;20181;-90
2023/09/18 09:02:50;;;;;;;5.28;0.90;;;20.60;99.90;;;;;;4137188;28;20228;-91
2023/09/18 09:04:51;;;;;;;1.92;1.00;;;20.60;99.90;;;;;;4153635;28;20327;-90
2023/09/18 09:06:52;;;;;;;2.72;0.63;;;20.40;99.90;;;;;;4137549;28;20191;-89
2023/09/18 09:08:53;;;;;;;2.67;1.25;;;20.30;99.90;;;;;;4137318;28;20212;-92
2023/09/18 09:10:54;;;;;;;2.35;1.10;;;20.30;99.90;;;;;;4137159;28;20556;-91
2023/09/18 09:12:58;;;;;;;3.10;1.17;;;20.40;99.90;;;;;;4137295;28;20193;-92
2023/09/18 09:15:06;;;;;;;0.80;0.68;;;20.40;99.90;;;;;;4137262;28;20192;-89
2023/09/18 09:17:07;;;;;;;3.35;1.15;;;20.50;99.90;;;;;;4137305;28;20181;-92
2023/09/18 09:19:08;;;;;;;3.22;1.17;;;20.70;99.90;;;;;;4137548;28;20556;-90
2023/09/18 09:21:09;;;;;;;2.15;0.98;;;20.70;99.90;;;;;;4137290;28;20231;-90
2023/09/18 09:23:10;;;;;;;1.27;0.90;;;20.80;99.90;;;;;;4137420;28;20213;-91
2023/09/18 09:25:33;;;;;;;7.20;1.60;;;20.80;99.90;;;;;;4165716;28;20195;-91
2023/09/18 09:27:42;;;;;;;6.07;1.60;;;20.80;99.90;;;;;;4167073;28;20277;-91
2023/09/18 09:29:57;;;;;;;3.60;1.10;;;20.90;99.90;;;;;;4138634;28;20232;-91
2023/09/18 09:32:17;;;;;;;3.13;1.45;;;20.90;99.90;;;;;;4153762;28;20177;-91
2023/09/18 09:34:26;;;;;;;2.67;1.17;;;20.40;99.90;;;;;;4134574;28;20221;-92
2023/09/18 09:36:27;;;;;;;3.13;1.55;;;20.50;99.90;;;;;;4150660;28;20192;-91
2023/09/18 09:38:34;;;;;;;2.65;1.17;;;20.50;99.90;;;;;;4134363;28;20181;-93
2023/09/18 09:40:37;;;;;;;2.05;1.30;;;20.50;99.90;;;;;;4134812;28;20623;-93
2023/09/18 09:42:41;;;;;;;2.50;1.00;;;20.60;99.90;;;;;;4134458;28;20175;-91
2023/09/18 09:44:42;;;;;;;2.00;1.17;;;20.70;99.90;;;;;;4133898;28;20178;-92
2023/09/18 09:46:48;;;;;;;2.05;1.02;;;20.60;99.90;;;;;;4150917;28;20578;-92
2023/09/18 09:49:02;;;;;;;5.28;1.65;;;20.50;99.90;;;;;;4134757;28;20194;-93
2023/09/18 09:51:03;;;;;;;3.72;1.23;;;20.60;99.90;;;;;;4134827;28;20178;-91
2023/09/18 09:53:04;;;;;;;4.53;1.77;;;20.50;99.90;;;;;;4151777;28;20221;-91
2023/09/18 09:55:19;;;;;;;2.15;1.20;;;20.40;99.90;;;;;;4135118;28;20206;-90
2023/09/18 09:57:20;;;;;;;2.67;1.52;;;20.50;99.90;;;;;;4135644;28;20181;-92
2023/09/18 09:59:21;;;;;;;2.67;1.33;;;20.50;99.90;;;;;;4134666;28;20258;-92
2023/09/18 10:01:23;;;;;;;4.90;1.20;;;20.50;99.90;;;;;;4135346;28;20185;-91
2023/09/18 10:03:25;;;;;;;2.88;1.02;;;20.70;99.90;;;;;;4151427;28;20205;-92
2023/09/18 10:05:35;;;;;;;1.75;1.25;;;20.70;99.90;;;;;;4137514;28;20212;-92
2023/09/18 10:07:38;;;;;;;4.90;0.80;;;20.60;99.90;;;;;;4136242;28;20173;-91
2023/09/18 10:09:42;;;;;;;1.55;0.80;;;20.60;99.90;;;;;;4134315;28;20185;-92
2023/09/18 10:11:48;;;;;;;1.38;1.08;;;20.70;99.90;;;;;;4133949;28;20182;-92
2023/09/18 10:13:56;;;;;;;3.83;0.95;;;20.50;99.90;;;;;;4134157;28;20225;-93
2023/09/18 10:16:02;;;;;;;5.25;0.80;;;20.40;99.90;;;;;;4133890;28;20205;-90
2023/09/18 10:18:04;;;;;;;1.48;0.88;;;20.30;99.90;;;;;;4134214;28;20193;-91
2023/09/18 10:20:19;;;;;;;2.95;1.02;;;20.40;99.90;;;;;;4134204;28;20185;-93
2023/09/18 10:22:37;;;;;;;2.05;1.00;;;20.50;99.90;;;;;;4134133;28;20181;-91
2023/09/18 10:24:41;;;;;;;2.58;1.42;;;20.50;99.90;;;;;;4127767;28;20233;-92
2023/09/18 10:26:53;;;;;;;1.27;0.88;;;20.50;99.90;;;;;;4119546;28;20186;-91
2023/09/18 10:29:02;;;;;;;1.50;0.80;;;20.70;99.90;;;;;;4133610;28;20216;-91
2023/09/18 10:31:04;;;;;;;1.88;1.10;;;21.00;99.90;;;;;;4133965;28;20184;-90
2023/09/18 10:33:07;;;;;;;1.33;0.85;;;21.10;99.90;;;;;;4133475;28;20699;-94
2023/09/18 10:35:09;;;;;;;2.15;0.80;;;21.50;99.90;;;;;;4128002;28;20204;-91
2023/09/18 10:37:11;;;;;;;2.83;1.10;;;21.50;99.90;;;;;;4149634;28;20177;-91